sensor_id;sensor_type;location;lat;lon;timestamp;pressure;altitude;pressure_sealevel;temperature;humidity
41334;BME280;27078;46.428;6.256;2023-04-05T00:01:19;96695.19;;;3.85;65.18
41334;BME280;27078;46.428;6.256;2023-04-05T00:03:44;96699.81;;;3.80;64.99
41334;BME280;27078;46.428;6.256;2023-04-05T00:06:11;96703.38;;;3.79;66.83
41334;BME280;27078;46.428;6.256;2023-04-05T00:08:37;96703.25;;;3.97;68.72
41334;BME280;27078;46.428;6.256;2023-04-05T00:11:02;96696.47;;;4.08;70.68
41334;BME280;27078;46.428;6.256;2023-04-05T00:13:27;96694.53;;;4.26;60.99
41334;BME280;27078;46.428;6.256;2023-04-05T00:15:53;96693.78;;;4.24;64.17
41334;BME280;27078;46.428;6.256;2023-04-05T00:18:22;96695.28;;;4.28;65.58
41334;BME280;27078;46.428;6.256;2023-04-05T00:20:51;96691.31;;;4.07;70.02
41334;BME280;27078;46.428;6.256;2023-04-05T00:23:16;96689.97;;;4.00;65.65
41334;BME280;27078;46.428;6.256;2023-04-05T00:25:43;96689.72;;;4.04;67.44
41334;BME280;27078;46.428;6.256;2023-04-05T00:28:09;96692.38;;;3.88;64.98
41334;BME280;27078;46.428;6.256;2023-04-05T00:30:34;96684.75;;;3.85;71.29
41334;BME280;27078;46.428;6.256;2023-04-05T00:33:00;96682.53;;;4.08;65.50
41334;BME280;27078;46.428;6.256;2023-04-05T00:35:26;96683.91;;;3.99;66.71
41334;BME280;27078;46.428;6.256;2023-04-05T00:37:52;96674.69;;;4.08;69.04
41334;BME280;27078;46.428;6.256;2023-04-05T00:40:17;96672.63;;;3.99;61.60
41334;BME280;27078;46.428;6.256;2023-04-05T00:42:42;96670.97;;;4.12;66.39
41334;BME280;27078;46.428;6.256;2023-04-05T00:45:08;96669.06;;;4.00;66.44
41334;BME280;27078;46.428;6.256;2023-04-05T00:47:34;96671.41;;;3.90;61.51
41334;BME280;27078;46.428;6.256;2023-04-05T00:49:59;96668.94;;;3.73;66.38
41334;BME280;27078;46.428;6.256;2023-04-05T00:52:26;96675.00;;;3.73;60.79
41334;BME280;27078;46.428;6.256;2023-04-05T00:54:52;96667.75;;;3.93;65.34
41334;BME280;27078;46.428;6.256;2023-04-05T00:57:18;96673.06;;;3.91;69.12
41334;BME280;27078;46.428;6.256;2023-04-05T00:59:44;96658.00;;;3.80;63.89
41334;BME280;27078;46.428;6.256;2023-04-05T01:04:41;96668.00;;;3.74;63.22
41334;BME280;27078;46.428;6.256;2023-04-05T01:07:29;96661.94;;;3.73;62.98
41334;BME280;27078;46.428;6.256;2023-04-05T01:09:57;96659.66;;;3.37;60.52
41334;BME280;27078;46.428;6.256;2023-04-05T01:12:26;96668.97;;;3.57;68.06
41334;BME280;27078;46.428;6.256;2023-04-05T01:14:53;96665.66;;;3.23;60.27
41334;BME280;27078;46.428;6.256;2023-04-05T01:17:25;96662.31;;;3.05;63.07
41334;BME280;27078;46.428;6.256;2023-04-05T01:20:03;96656.16;;;3.22;68.05
41334;BME280;27078;46.428;6.256;2023-04-05T01:30:41;96655.88;;;3.11;64.60
41334;BME280;27078;46.428;6.256;2023-04-05T01:36:05;96657.88;;;3.21;64.35
41334;BME280;27078;46.428;6.256;2023-04-05T01:38:34;96653.69;;;3.19;66.72
41334;BME280;27078;46.428;6.256;2023-04-05T01:41:02;96661.50;;;3.35;73.32
41334;BME280;27078;46.428;6.256;2023-04-05T01:43:28;96657.47;;;3.29;68.03
41334;BME280;27078;46.428;6.256;2023-04-05T01:45:53;96656.16;;;3.22;65.63
41334;BME280;27078;46.428;6.256;2023-04-05T01:48:18;96652.81;;;3.34;73.15
41334;BME280;27078;46.428;6.256;2023-04-05T01:50:44;96655.63;;;3.31;67.76
41334;BME280;27078;46.428;6.256;2023-04-05T01:53:09;96655.97;;;3.25;67.27
41334;BME280;27078;46.428;6.256;2023-04-05T01:55:35;96657.88;;;3.37;65.42
41334;BME280;27078;46.428;6.256;2023-04-05T01:58:00;96667.22;;;3.25;63.17
41334;BME280;27078;46.428;6.256;2023-04-05T02:00:26;96663.53;;;3.30;71.42
41334;BME280;27078;46.428;6.256;2023-04-05T02:02:52;96666.34;;;3.57;72.64
41334;BME280;27078;46.428;6.256;2023-04-05T02:05:17;96660.06;;;3.75;68.21
41334;BME280;27078;46.428;6.256;2023-04-05T02:07:42;96656.56;;;3.91;70.72
41334;BME280;27078;46.428;6.256;2023-04-05T02:10:08;96648.25;;;4.13;70.13
41334;BME280;27078;46.428;6.256;2023-04-05T02:12:33;96656.69;;;3.73;60.79
41334;BME280;27078;46.428;6.256;2023-04-05T02:14:58;96655.28;;;3.67;59.95
41334;BME280;27078;46.428;6.256;2023-04-05T02:17:25;96646.16;;;3.75;57.97
41334;BME280;27078;46.428;6.256;2023-04-05T02:19:58;96644.19;;;3.78;60.70
41334;BME280;27078;46.428;6.256;2023-04-05T02:22:26;96647.66;;;3.79;64.60
41334;BME280;27078;46.428;6.256;2023-04-05T02:24:51;96643.56;;;3.75;64.34
41334;BME280;27078;46.428;6.256;2023-04-05T02:27:17;96648.91;;;3.87;57.50
41334;BME280;27078;46.428;6.256;2023-04-05T02:29:42;96656.94;;;3.99;61.91
41334;BME280;27078;46.428;6.256;2023-04-05T02:32:09;96649.75;;;3.88;58.94
41334;BME280;27078;46.428;6.256;2023-04-05T02:34:34;96654.06;;;4.03;62.62
41334;BME280;27078;46.428;6.256;2023-04-05T02:37:01;96656.34;;;3.79;55.18
41334;BME280;27078;46.428;6.256;2023-04-05T02:39:27;96653.78;;;3.94;60.95
41334;BME280;27078;46.428;6.256;2023-04-05T02:41:53;96654.00;;;3.75;52.74
41334;BME280;27078;46.428;6.256;2023-04-05T02:44:18;96664.03;;;3.97;56.08
41334;BME280;27078;46.428;6.256;2023-04-05T02:46:43;96644.78;;;3.83;59.15
41334;BME280;27078;46.428;6.256;2023-04-05T02:49:09;96651.59;;;3.86;62.45
41334;BME280;27078;46.428;6.256;2023-04-05T02:51:34;96651.28;;;3.76;58.96
41334;BME280;27078;46.428;6.256;2023-04-05T02:54:03;96648.59;;;3.78;62.07
41334;BME280;27078;46.428;6.256;2023-04-05T02:56:28;96651.97;;;3.80;60.29
41334;BME280;27078;46.428;6.256;2023-04-05T02:58:54;96640.72;;;3.94;56.07
41334;BME280;27078;46.428;6.256;2023-04-05T03:01:19;96634.91;;;4.03;58.58
41334;BME280;27078;46.428;6.256;2023-04-05T03:03:45;96638.63;;;3.84;55.80
41334;BME280;27078;46.428;6.256;2023-04-05T03:06:10;96640.66;;;3.79;54.12
41334;BME280;27078;46.428;6.256;2023-04-05T03:08:40;96644.75;;;3.69;57.10
41334;BME280;27078;46.428;6.256;2023-04-05T03:11:09;96642.50;;;3.47;48.26
41334;BME280;27078;46.428;6.256;2023-04-05T03:13:35;96629.16;;;3.37;54.40
41334;BME280;27078;46.428;6.256;2023-04-05T03:16:01;96627.31;;;3.23;48.26
41334;BME280;27078;46.428;6.256;2023-04-05T03:18:27;96640.41;;;3.08;48.20
41334;BME280;27078;46.428;6.256;2023-04-05T03:20:54;96637.97;;;2.89;50.65
41334;BME280;27078;46.428;6.256;2023-04-05T03:23:28;96646.63;;;2.89;47.43
41334;BME280;27078;46.428;6.256;2023-04-05T03:26:03;96647.41;;;2.75;48.70
41334;BME280;27078;46.428;6.256;2023-04-05T03:28:30;96641.41;;;2.57;49.67
41334;BME280;27078;46.428;6.256;2023-04-05T03:30:57;96640.81;;;2.52;50.09
41334;BME280;27078;46.428;6.256;2023-04-05T03:33:22;96640.13;;;2.49;50.06
41334;BME280;27078;46.428;6.256;2023-04-05T03:35:47;96638.25;;;2.35;50.36
41334;BME280;27078;46.428;6.256;2023-04-05T03:38:13;96640.25;;;2.30;51.25
41334;BME280;27078;46.428;6.256;2023-04-05T03:40:38;96633.38;;;2.29;52.01
41334;BME280;27078;46.428;6.256;2023-04-05T03:43:04;96639.06;;;2.19;51.14
41334;BME280;27078;46.428;6.256;2023-04-05T03:45:29;96637.53;;;2.15;54.97
41334;BME280;27078;46.428;6.256;2023-04-05T03:47:55;96640.66;;;1.89;53.33
41334;BME280;27078;46.428;6.256;2023-04-05T03:50:21;96633.81;;;1.86;55.33
41334;BME280;27078;46.428;6.256;2023-04-05T03:52:46;96636.66;;;1.81;55.19
41334;BME280;27078;46.428;6.256;2023-04-05T03:55:11;96634.59;;;1.71;54.44
41334;BME280;27078;46.428;6.256;2023-04-05T03:57:41;96640.34;;;1.60;53.76
41334;BME280;27078;46.428;6.256;2023-04-05T04:00:07;96651.00;;;1.38;55.03
41334;BME280;27078;46.428;6.256;2023-04-05T04:02:46;96648.06;;;1.27;56.78
41334;BME280;27078;46.428;6.256;2023-04-05T04:05:13;96655.47;;;1.17;59.45
41334;BME280;27078;46.428;6.256;2023-04-05T04:07:40;96653.00;;;1.14;58.26
41334;BME280;27078;46.428;6.256;2023-04-05T04:10:07;96648.56;;;1.16;63.03
41334;BME280;27078;46.428;6.256;2023-04-05T04:12:32;96649.63;;;1.12;62.84
41334;BME280;27078;46.428;6.256;2023-04-05T04:14:58;96651.97;;;0.99;65.08
41334;BME280;27078;46.428;6.256;2023-04-05T04:19:52;96661.34;;;0.84;70.17
41334;BME280;27078;46.428;6.256;2023-04-05T04:22:18;96652.63;;;0.85;71.60
41334;BME280;27078;46.428;6.256;2023-04-05T04:24:45;96646.94;;;0.77;72.14
41334;BME280;27078;46.428;6.256;2023-04-05T04:27:15;96653.47;;;0.67;73.81
41334;BME280;27078;46.428;6.256;2023-04-05T04:29:41;96645.19;;;0.58;74.76
41334;BME280;27078;46.428;6.256;2023-04-05T04:32:11;96651.38;;;0.56;74.40
41334;BME280;27078;46.428;6.256;2023-04-05T04:34:37;96662.78;;;0.53;75.45
41334;BME280;27078;46.428;6.256;2023-04-05T04:37:15;96660.44;;;0.47;76.89
41334;BME280;27078;46.428;6.256;2023-04-05T04:39:47;96647.66;;;0.43;76.44
41334;BME280;27078;46.428;6.256;2023-04-05T04:42:14;96645.06;;;0.43;75.97
41334;BME280;27078;46.428;6.256;2023-04-05T04:44:47;96652.22;;;0.56;76.32
41334;BME280;27078;46.428;6.256;2023-04-05T04:47:12;96667.88;;;0.74;75.73
41334;BME280;27078;46.428;6.256;2023-04-05T04:49:41;96653.31;;;0.70;74.42
41334;BME280;27078;46.428;6.256;2023-04-05T04:52:07;96648.84;;;0.54;74.50
41334;BME280;27078;46.428;6.256;2023-04-05T04:54:34;96663.31;;;0.41;75.06
41334;BME280;27078;46.428;6.256;2023-04-05T04:57:00;96663.38;;;0.39;74.92
41334;BME280;27078;46.428;6.256;2023-04-05T04:59:27;96664.09;;;0.43;74.61
41334;BME280;27078;46.428;6.256;2023-04-05T05:01:52;96657.66;;;0.31;74.68
41334;BME280;27078;46.428;6.256;2023-04-05T05:04:17;96660.53;;;0.25;74.97
41334;BME280;27078;46.428;6.256;2023-04-05T05:06:43;96669.97;;;0.28;75.00
41334;BME280;27078;46.428;6.256;2023-04-05T05:09:08;96670.56;;;0.14;75.57
41334;BME280;27078;46.428;6.256;2023-04-05T05:11:34;96681.03;;;0.12;76.27
41334;BME280;27078;46.428;6.256;2023-04-05T05:13:59;96687.13;;;0.11;77.15
41334;BME280;27078;46.428;6.256;2023-04-05T05:16:25;96679.34;;;0.11;77.04
41334;BME280;27078;46.428;6.256;2023-04-05T05:18:51;96683.75;;;0.09;75.71
41334;BME280;27078;46.428;6.256;2023-04-05T05:21:17;96688.97;;;0.09;74.13
41334;BME280;27078;46.428;6.256;2023-04-05T05:23:42;96682.47;;;-0.01;74.37
41334;BME280;27078;46.428;6.256;2023-04-05T05:26:07;96684.09;;;0.02;71.13
41334;BME280;27078;46.428;6.256;2023-04-05T05:28:33;96693.75;;;0.18;73.35
41334;BME280;27078;46.428;6.256;2023-04-05T05:30:58;96683.91;;;0.25;72.24
41334;BME280;27078;46.428;6.256;2023-04-05T05:33:24;96690.31;;;0.18;71.31
41334;BME280;27078;46.428;6.256;2023-04-05T05:35:50;96694.47;;;0.22;73.19
41334;BME280;27078;46.428;6.256;2023-04-05T05:38:17;96690.25;;;0.19;75.42
41334;BME280;27078;46.428;6.256;2023-04-05T05:40:42;96695.97;;;0.07;78.52
41334;BME280;27078;46.428;6.256;2023-04-05T05:43:08;96698.97;;;-0.02;89.58
41334;BME280;27078;46.428;6.256;2023-04-05T05:45:35;96693.63;;;0.01;83.06
41334;BME280;27078;46.428;6.256;2023-04-05T05:48:00;96691.31;;;-0.05;84.49
41334;BME280;27078;46.428;6.256;2023-04-05T05:50:26;96704.16;;;-0.02;85.58
41334;BME280;27078;46.428;6.256;2023-04-05T05:52:51;96696.22;;;0.01;82.91
41334;BME280;27078;46.428;6.256;2023-04-05T05:55:17;96696.59;;;0.12;82.27
41334;BME280;27078;46.428;6.256;2023-04-05T05:57:42;96702.50;;;0.36;78.04
41334;BME280;27078;46.428;6.256;2023-04-05T06:00:08;96704.22;;;0.56;76.85
41334;BME280;27078;46.428;6.256;2023-04-05T06:02:34;96710.41;;;0.73;76.03
41334;BME280;27078;46.428;6.256;2023-04-05T06:05:00;96708.03;;;0.87;74.89
41334;BME280;27078;46.428;6.256;2023-04-05T06:07:27;96705.59;;;1.01;72.88
41334;BME280;27078;46.428;6.256;2023-04-05T06:09:52;96701.59;;;1.13;71.88
41334;BME280;27078;46.428;6.256;2023-04-05T06:12:20;96708.78;;;1.27;70.37
41334;BME280;27078;46.428;6.256;2023-04-05T06:14:45;96700.75;;;1.32;71.18
41334;BME280;27078;46.428;6.256;2023-04-05T06:17:11;96696.56;;;1.47;67.78
41334;BME280;27078;46.428;6.256;2023-04-05T06:19:36;96700.09;;;1.63;66.87
41334;BME280;27078;46.428;6.256;2023-04-05T06:22:02;96697.34;;;1.83;63.35
41334;BME280;27078;46.428;6.256;2023-04-05T06:24:27;96700.88;;;2.00;62.82
41334;BME280;27078;46.428;6.256;2023-04-05T06:26:56;96698.09;;;2.20;63.21
41334;BME280;27078;46.428;6.256;2023-04-05T06:29:22;96706.03;;;2.35;61.94
41334;BME280;27078;46.428;6.256;2023-04-05T06:31:47;96707.69;;;2.53;60.74
41334;BME280;27078;46.428;6.256;2023-04-05T06:34:13;96696.69;;;2.64;59.37
41334;BME280;27078;46.428;6.256;2023-04-05T06:36:38;96702.41;;;2.71;59.80
41334;BME280;27078;46.428;6.256;2023-04-05T06:39:04;96695.44;;;2.87;55.69
41334;BME280;27078;46.428;6.256;2023-04-05T06:41:29;96696.91;;;2.93;59.05
41334;BME280;27078;46.428;6.256;2023-04-05T06:43:55;96690.16;;;3.04;60.38
41334;BME280;27078;46.428;6.256;2023-04-05T06:46:20;96700.25;;;3.11;60.50
41334;BME280;27078;46.428;6.256;2023-04-05T06:48:45;96710.22;;;3.20;61.12
41334;BME280;27078;46.428;6.256;2023-04-05T06:51:12;96706.88;;;3.32;60.46
41334;BME280;27078;46.428;6.256;2023-04-05T06:53:38;96703.03;;;3.39;58.79
41334;BME280;27078;46.428;6.256;2023-04-05T06:56:03;96699.47;;;3.56;58.83
41334;BME280;27078;46.428;6.256;2023-04-05T06:58:29;96683.88;;;3.85;59.64
41334;BME280;27078;46.428;6.256;2023-04-05T07:00:55;96689.97;;;4.00;57.49
41334;BME280;27078;46.428;6.256;2023-04-05T07:03:20;96687.22;;;4.17;56.86
41334;BME280;27078;46.428;6.256;2023-04-05T07:05:54;96689.00;;;4.31;57.21
41334;BME280;27078;46.428;6.256;2023-04-05T07:08:21;96678.66;;;4.44;59.08
41334;BME280;27078;46.428;6.256;2023-04-05T07:10:48;96687.06;;;4.49;58.77
41334;BME280;27078;46.428;6.256;2023-04-05T07:13:14;96692.69;;;4.57;58.08
41334;BME280;27078;46.428;6.256;2023-04-05T07:15:41;96691.28;;;4.66;55.22
41334;BME280;27078;46.428;6.256;2023-04-05T07:18:07;96692.75;;;4.84;57.57
41334;BME280;27078;46.428;6.256;2023-04-05T07:20:32;96692.06;;;4.95;56.88
41334;BME280;27078;46.428;6.256;2023-04-05T07:22:58;96689.44;;;5.09;56.99
41334;BME280;27078;46.428;6.256;2023-04-05T07:25:23;96690.75;;;5.17;55.31
41334;BME280;27078;46.428;6.256;2023-04-05T07:27:49;96698.97;;;5.25;55.85
41334;BME280;27078;46.428;6.256;2023-04-05T07:30:14;96701.91;;;5.33;55.76
41334;BME280;27078;46.428;6.256;2023-04-05T07:32:40;96707.22;;;5.46;55.77
41334;BME280;27078;46.428;6.256;2023-04-05T07:35:05;96697.94;;;5.55;56.38
41334;BME280;27078;46.428;6.256;2023-04-05T07:37:31;96701.09;;;5.60;54.89
41334;BME280;27078;46.428;6.256;2023-04-05T07:39:56;96697.53;;;5.61;54.13
41334;BME280;27078;46.428;6.256;2023-04-05T07:42:22;96695.16;;;5.70;57.23
41334;BME280;27078;46.428;6.256;2023-04-05T07:44:48;96697.81;;;5.83;55.41
41334;BME280;27078;46.428;6.256;2023-04-05T07:47:13;96692.91;;;5.91;52.22
41334;BME280;27078;46.428;6.256;2023-04-05T07:49:39;96692.97;;;6.04;56.63
41334;BME280;27078;46.428;6.256;2023-04-05T07:52:05;96695.59;;;6.04;53.63
41334;BME280;27078;46.428;6.256;2023-04-05T07:54:31;96702.31;;;6.08;53.32
41334;BME280;27078;46.428;6.256;2023-04-05T07:56:58;96699.38;;;6.26;57.85
41334;BME280;27078;46.428;6.256;2023-04-05T07:59:25;96706.00;;;6.31;55.10
41334;BME280;27078;46.428;6.256;2023-04-05T08:01:51;96691.53;;;6.39;55.65
41334;BME280;27078;46.428;6.256;2023-04-05T08:04:18;96690.69;;;6.51;57.58
41334;BME280;27078;46.428;6.256;2023-04-05T08:06:46;96689.22;;;6.47;53.54
41334;BME280;27078;46.428;6.256;2023-04-05T08:09:12;96687.22;;;6.50;53.88
41334;BME280;27078;46.428;6.256;2023-04-05T08:11:38;96685.75;;;6.59;54.50
41334;BME280;27078;46.428;6.256;2023-04-05T08:14:04;96695.84;;;6.65;54.51
41334;BME280;27078;46.428;6.256;2023-04-05T08:16:30;96689.75;;;6.65;55.12
41334;BME280;27078;46.428;6.256;2023-04-05T08:18:56;96685.41;;;6.77;54.00
41334;BME280;27078;46.428;6.256;2023-04-05T08:21:22;96692.88;;;6.83;55.32
41334;BME280;27078;46.428;6.256;2023-04-05T08:23:48;96690.97;;;6.85;55.18
41334;BME280;27078;46.428;6.256;2023-04-05T08:26:15;96695.28;;;6.99;53.40
41334;BME280;27078;46.428;6.256;2023-04-05T08:28:41;96690.13;;;6.97;53.19
41334;BME280;27078;46.428;6.256;2023-04-05T08:31:07;96689.47;;;7.06;54.01
41334;BME280;27078;46.428;6.256;2023-04-05T08:33:33;96700.19;;;7.03;51.94
41334;BME280;27078;46.428;6.256;2023-04-05T08:36:06;96702.09;;;7.01;52.53
41334;BME280;27078;46.428;6.256;2023-04-05T08:38:32;96694.28;;;7.12;53.13
41334;BME280;27078;46.428;6.256;2023-04-05T08:41:06;96696.00;;;7.01;51.75
41334;BME280;27078;46.428;6.256;2023-04-05T08:46:00;96691.16;;;7.07;54.66
41334;BME280;27078;46.428;6.256;2023-04-05T08:48:30;96697.16;;;7.09;54.20
41334;BME280;27078;46.428;6.256;2023-04-05T08:50:56;96702.22;;;6.87;54.94
41334;BME280;27078;46.428;6.256;2023-04-05T08:53:22;96693.56;;;7.10;55.11
41334;BME280;27078;46.428;6.256;2023-04-05T08:55:48;96698.22;;;7.31;56.33
41334;BME280;27078;46.428;6.256;2023-04-05T08:58:15;96697.34;;;7.43;55.80
41334;BME280;27078;46.428;6.256;2023-04-05T09:00:41;96692.97;;;7.31;53.66
41334;BME280;27078;46.428;6.256;2023-04-05T09:03:12;96699.78;;;7.33;53.27
41334;BME280;27078;46.428;6.256;2023-04-05T09:05:40;96697.44;;;7.18;52.27
41334;BME280;27078;46.428;6.256;2023-04-05T09:08:09;96694.97;;;6.90;52.77
41334;BME280;27078;46.428;6.256;2023-04-05T09:10:34;96699.34;;;7.16;55.55
41334;BME280;27078;46.428;6.256;2023-04-05T09:13:00;96703.53;;;7.18;54.95
41334;BME280;27078;46.428;6.256;2023-04-05T09:15:27;96705.84;;;7.10;54.86
41334;BME280;27078;46.428;6.256;2023-04-05T09:17:54;96702.09;;;7.01;55.86
41334;BME280;27078;46.428;6.256;2023-04-05T09:20:20;96704.16;;;7.22;55.05
41334;BME280;27078;46.428;6.256;2023-04-05T09:22:46;96701.59;;;7.33;54.05
41334;BME280;27078;46.428;6.256;2023-04-05T09:25:32;96707.44;;;7.49;55.78
41334;BME280;27078;46.428;6.256;2023-04-05T09:27:58;96703.41;;;7.57;54.96
41334;BME280;27078;46.428;6.256;2023-04-05T09:30:25;96699.91;;;7.80;54.86
41334;BME280;27078;46.428;6.256;2023-04-05T09:32:53;96696.38;;;7.92;54.40
41334;BME280;27078;46.428;6.256;2023-04-05T09:35:23;96697.22;;;7.93;53.04
41334;BME280;27078;46.428;6.256;2023-04-05T09:38:02;96691.75;;;7.96;53.18
41334;BME280;27078;46.428;6.256;2023-04-05T09:43:06;96694.44;;;7.83;51.81
41334;BME280;27078;46.428;6.256;2023-04-05T09:45:41;96695.91;;;7.87;50.52
41334;BME280;27078;46.428;6.256;2023-04-05T09:48:07;96696.88;;;7.98;52.64
41334;BME280;27078;46.428;6.256;2023-04-05T09:50:33;96690.44;;;8.02;52.07
41334;BME280;27078;46.428;6.256;2023-04-05T09:53:05;96689.69;;;8.24;55.10
41334;BME280;27078;46.428;6.256;2023-04-05T09:55:32;96691.53;;;8.10;54.77
41334;BME280;27078;46.428;6.256;2023-04-05T09:57:57;96695.66;;;8.26;55.96
41334;BME280;27078;46.428;6.256;2023-04-05T10:00:23;96689.25;;;8.41;57.59
41334;BME280;27078;46.428;6.256;2023-04-05T10:02:52;96695.97;;;8.45;57.82
41334;BME280;27078;46.428;6.256;2023-04-05T10:05:18;96697.31;;;8.62;54.14
41334;BME280;27078;46.428;6.256;2023-04-05T10:07:43;96694.47;;;8.76;56.15
41334;BME280;27078;46.428;6.256;2023-04-05T10:10:10;96697.09;;;8.88;52.73
41334;BME280;27078;46.428;6.256;2023-04-05T10:12:38;96691.81;;;8.88;52.92
41334;BME280;27078;46.428;6.256;2023-04-05T10:15:04;96687.88;;;8.93;49.69
41334;BME280;27078;46.428;6.256;2023-04-05T10:17:38;96698.28;;;9.06;53.21
41334;BME280;27078;46.428;6.256;2023-04-05T10:33:45;96699.22;;;9.05;49.95
41334;BME280;27078;46.428;6.256;2023-04-05T10:39:11;96687.47;;;9.21;50.62
41334;BME280;27078;46.428;6.256;2023-04-05T10:41:46;96687.47;;;9.32;49.31
41334;BME280;27078;46.428;6.256;2023-04-05T10:44:11;96690.91;;;9.44;49.75
41334;BME280;27078;46.428;6.256;2023-04-05T10:46:39;96682.31;;;9.30;47.81
41334;BME280;27078;46.428;6.256;2023-04-05T10:51:42;96681.00;;;9.25;47.86
41334;BME280;27078;46.428;6.256;2023-04-05T10:54:08;96677.66;;;9.23;47.81
41334;BME280;27078;46.428;6.256;2023-04-05T10:56:36;96680.84;;;9.49;49.37
41334;BME280;27078;46.428;6.256;2023-04-05T10:59:03;96674.91;;;9.68;49.16
41334;BME280;27078;46.428;6.256;2023-04-05T11:01:29;96676.78;;;9.77;46.13
41334;BME280;27078;46.428;6.256;2023-04-05T11:04:15;96663.44;;;9.90;50.51
41334;BME280;27078;46.428;6.256;2023-04-05T11:06:41;96670.47;;;10.01;46.79
41334;BME280;27078;46.428;6.256;2023-04-05T11:11:47;96663.56;;;10.09;46.98
41334;BME280;27078;46.428;6.256;2023-04-05T11:14:21;96655.47;;;10.01;47.24
41334;BME280;27078;46.428;6.256;2023-04-05T11:16:48;96663.22;;;10.14;47.74
41334;BME280;27078;46.428;6.256;2023-04-05T11:19:17;96660.75;;;10.22;48.10
41334;BME280;27078;46.428;6.256;2023-04-05T11:21:43;96653.75;;;10.32;46.32
41334;BME280;27078;46.428;6.256;2023-04-05T11:24:13;96655.84;;;10.50;46.72
41334;BME280;27078;46.428;6.256;2023-04-05T11:29:07;96653.69;;;10.65;46.96
41334;BME280;27078;46.428;6.256;2023-04-05T11:31:32;96647.53;;;10.64;47.44
41334;BME280;27078;46.428;6.256;2023-04-05T11:33:59;96645.34;;;10.69;45.63
41334;BME280;27078;46.428;6.256;2023-04-05T11:36:41;96654.00;;;10.81;45.21
41334;BME280;27078;46.428;6.256;2023-04-05T11:42:02;96657.34;;;10.83;48.89
41334;BME280;27078;46.428;6.256;2023-04-05T11:44:44;96647.72;;;11.03;46.28
41334;BME280;27078;46.428;6.256;2023-04-05T11:47:10;96648.72;;;11.12;45.62
41334;BME280;27078;46.428;6.256;2023-04-05T11:49:36;96644.72;;;11.27;47.44
41334;BME280;27078;46.428;6.256;2023-04-05T11:52:13;96638.56;;;11.07;43.33
41334;BME280;27078;46.428;6.256;2023-04-05T11:54:40;96645.47;;;10.98;46.22
41334;BME280;27078;46.428;6.256;2023-04-05T11:57:20;96643.50;;;11.00;45.03
41334;BME280;27078;46.428;6.256;2023-04-05T11:59:49;96634.91;;;11.08;46.37
41334;BME280;27078;46.428;6.256;2023-04-05T12:02:15;96637.06;;;11.24;45.67
41334;BME280;27078;46.428;6.256;2023-04-05T12:04:41;96640.28;;;11.37;44.74
41334;BME280;27078;46.428;6.256;2023-04-05T12:07:07;96637.44;;;11.19;43.80
41334;BME280;27078;46.428;6.256;2023-04-05T12:09:33;96630.13;;;11.33;46.20
41334;BME280;27078;46.428;6.256;2023-04-05T12:11:59;96625.00;;;11.60;46.63
41334;BME280;27078;46.428;6.256;2023-04-05T12:14:24;96625.28;;;11.67;43.75
41334;BME280;27078;46.428;6.256;2023-04-05T12:16:50;96633.91;;;11.59;43.56
41334;BME280;27078;46.428;6.256;2023-04-05T12:19:15;96624.16;;;11.70;43.15
41334;BME280;27078;46.428;6.256;2023-04-05T12:21:40;96627.06;;;11.57;41.70
41334;BME280;27078;46.428;6.256;2023-04-05T12:24:06;96629.31;;;11.61;42.73
41334;BME280;27078;46.428;6.256;2023-04-05T12:26:33;96624.72;;;11.64;42.50
41334;BME280;27078;46.428;6.256;2023-04-05T12:29:02;96625.41;;;11.46;41.17
41334;BME280;27078;46.428;6.256;2023-04-05T12:34:03;96623.75;;;11.84;43.18
41334;BME280;27078;46.428;6.256;2023-04-05T12:36:29;96621.53;;;11.89;45.37
41334;BME280;27078;46.428;6.256;2023-04-05T12:38:56;96617.22;;;11.88;44.04
41334;BME280;27078;46.428;6.256;2023-04-05T12:41:28;96615.94;;;12.02;42.74
41334;BME280;27078;46.428;6.256;2023-04-05T12:43:57;96606.34;;;12.11;44.30
41334;BME280;27078;46.428;6.256;2023-04-05T12:46:47;96618.03;;;12.08;40.75
41334;BME280;27078;46.428;6.256;2023-04-05T12:49:17;96604.66;;;12.10;44.35
41334;BME280;27078;46.428;6.256;2023-04-05T12:51:44;96612.72;;;12.28;42.65
41334;BME280;27078;46.428;6.256;2023-04-05T12:54:13;96616.59;;;12.33;43.65
41334;BME280;27078;46.428;6.256;2023-04-05T12:56:40;96602.53;;;12.42;41.98
41334;BME280;27078;46.428;6.256;2023-04-05T12:59:06;96607.63;;;12.54;45.20
41334;BME280;27078;46.428;6.256;2023-04-05T13:01:32;96603.59;;;12.50;42.65
41334;BME280;27078;46.428;6.256;2023-04-05T13:03:59;96597.31;;;12.51;41.57
41334;BME280;27078;46.428;6.256;2023-04-05T13:06:29;96603.53;;;12.69;44.31
41334;BME280;27078;46.428;6.256;2023-04-05T13:08:55;96603.41;;;12.61;41.09
41334;BME280;27078;46.428;6.256;2023-04-05T13:11:21;96601.00;;;12.77;42.08
41334;BME280;27078;46.428;6.256;2023-04-05T13:13:46;96594.41;;;12.81;42.00
41334;BME280;27078;46.428;6.256;2023-04-05T13:16:12;96596.38;;;12.79;41.97
41334;BME280;27078;46.428;6.256;2023-04-05T13:18:37;96598.47;;;13.03;43.99
41334;BME280;27078;46.428;6.256;2023-04-05T13:21:03;96594.78;;;13.14;42.68
41334;BME280;27078;46.428;6.256;2023-04-05T13:23:33;96590.16;;;13.16;44.12
41334;BME280;27078;46.428;6.256;2023-04-05T13:25:59;96596.97;;;13.29;43.12
41334;BME280;27078;46.428;6.256;2023-04-05T13:28:25;96585.78;;;13.35;41.36
41334;BME280;27078;46.428;6.256;2023-04-05T13:30:50;96585.56;;;13.18;41.49
41334;BME280;27078;46.428;6.256;2023-04-05T13:33:16;96584.59;;;12.92;38.92
41334;BME280;27078;46.428;6.256;2023-04-05T13:35:42;96579.31;;;12.92;42.66
41334;BME280;27078;46.428;6.256;2023-04-05T13:38:07;96580.00;;;12.94;39.40
41334;BME280;27078;46.428;6.256;2023-04-05T13:40:32;96576.34;;;12.95;41.69
41334;BME280;27078;46.428;6.256;2023-04-05T13:42:58;96577.56;;;13.00;40.77
41334;BME280;27078;46.428;6.256;2023-04-05T13:45:23;96572.31;;;12.91;38.73
41334;BME280;27078;46.428;6.256;2023-04-05T13:47:49;96567.22;;;13.07;38.89
41334;BME280;27078;46.428;6.256;2023-04-05T13:50:15;96567.63;;;13.12;40.77
41334;BME280;27078;46.428;6.256;2023-04-05T13:52:40;96560.03;;;13.17;39.38
41334;BME280;27078;46.428;6.256;2023-04-05T13:55:06;96559.31;;;13.25;38.02
41334;BME280;27078;46.428;6.256;2023-04-05T13:57:31;96563.88;;;13.33;41.76